Time;durP1;ratioP1;P1;durP2;ratioP2;P2;SDS_P1;SDS_P2;PMS_P1;PMS_P2;Temp;Humidity;BMP_temperature;BMP_pressure;BME280_temperature;BME280_humidity;BME280_pressure;Samples;Min_cycle;Max_cycle;Signal;HPM_P1;HPM_P2
2022/11/13 00:01:14;;;;;;;20.88;18.88;;;5.40;99.90;;;;;;4959637;28;88113;-31
2022/11/13 00:03:39;;;;;;;19.83;17.90;;;5.50;99.90;;;;;;4960292;28;89532;-32
2022/11/13 00:06:05;;;;;;;28.80;22.98;;;5.50;99.90;;;;;;4959526;28;90428;-32
2022/11/13 00:08:31;;;;;;;22.95;20.65;;;5.50;99.90;;;;;;4958960;28;89906;-33
2022/11/13 00:11:08;;;;;;;23.23;20.90;;;5.50;99.90;;;;;;4959871;28;90194;-32
2022/11/13 00:13:34;;;;;;;28.45;21.30;;;5.50;99.90;;;;;;4945870;28;90189;-31
2022/11/13 00:16:03;;;;;;;21.52;19.55;;;5.60;99.90;;;;;;4959756;28;90697;-32
2022/11/13 00:18:28;;;;;;;;;;;5.50;99.90;;;;;;4960298;28;90248;-31
2022/11/13 00:20:56;;;;;;;23.83;21.35;;;5.50;99.90;;;;;;4961640;28;89320;-32
2022/11/13 00:23:21;;;;;;;24.70;22.17;;;5.50;99.90;;;;;;4959820;28;88349;-32
2022/11/13 00:25:47;;;;;;;25.80;23.02;;;5.50;99.90;;;;;;4959756;28;90263;-32
2022/11/13 00:28:13;;;;;;;25.75;23.02;;;5.50;99.90;;;;;;4959420;28;89524;-32
2022/11/13 00:30:38;;;;;;;21.48;19.05;;;5.60;99.90;;;;;;4959429;28;89719;-31
2022/11/13 00:33:04;;;;;;;28.98;25.80;;;5.60;99.90;;;;;;4959633;28;89948;-30
2022/11/13 00:35:31;;;;;;;29.90;26.80;;;5.60;99.90;;;;;;4958640;28;90486;-31
2022/11/13 00:37:57;;;;;;;36.72;29.40;;;5.60;99.90;;;;;;4958882;28;90750;-30
2022/11/13 00:40:22;;;;;;;30.17;26.38;;;5.70;99.90;;;;;;4958863;28;90940;-32
2022/11/13 00:42:48;;;;;;;24.70;22.33;;;5.80;99.90;;;;;;4959472;28;89661;-33
2022/11/13 00:45:14;;;;;;;25.55;22.60;;;5.80;99.90;;;;;;4959101;28;90146;-32
2022/11/13 00:47:39;;;;;;;26.45;22.00;;;5.80;99.90;;;;;;4958749;28;89516;-33
2022/11/13 00:50:05;;;;;;;22.05;19.98;;;5.80;99.90;;;;;;4959904;28;90148;-30
2022/11/13 00:52:31;;;;;;;28.73;24.83;;;5.80;99.90;;;;;;4958622;28;88558;-31
2022/11/13 00:54:56;;;;;;;23.42;21.00;;;5.70;99.90;;;;;;4959684;28;90860;-33
2022/11/13 00:57:22;;;;;;;22.45;20.25;;;5.70;99.90;;;;;;4958550;28;89592;-30
2022/11/13 00:59:47;;;;;;;22.27;19.95;;;5.70;99.90;;;;;;4959015;28;89817;-33
2022/11/13 01:02:14;;;;;;;27.45;22.95;;;5.70;99.90;;;;;;4957896;28;89686;-33
2022/11/13 01:04:41;;;;;;;20.15;17.83;;;5.70;99.90;;;;;;4958010;28;89823;-30
2022/11/13 01:07:06;;;;;;;20.58;18.63;;;5.70;99.90;;;;;;4959582;28;90578;-30
2022/11/13 01:09:32;;;;;;;21.80;19.60;;;5.70;99.90;;;;;;4958397;28;89489;-30
2022/11/13 01:11:58;;;;;;;24.75;20.05;;;5.70;99.90;;;;;;4959000;28;89673;-30
2022/11/13 01:14:23;;;;;;;21.10;19.00;;;5.70;99.90;;;;;;4958264;28;90678;-35
2022/11/13 01:16:49;;;;;;;21.55;19.27;;;5.60;99.90;;;;;;4958434;28;89768;-31
2022/11/13 01:19:14;;;;;;;25.23;22.83;;;5.60;99.90;;;;;;4959792;28;89661;-31
2022/11/13 01:21:40;;;;;;;26.17;23.40;;;5.70;99.90;;;;;;4957946;28;88752;-30
2022/11/13 01:24:05;;;;;;;27.38;23.52;;;5.70;99.90;;;;;;4959623;28;90517;-31
2022/11/13 01:26:31;;;;;;;27.50;24.63;;;5.90;99.90;;;;;;4958222;28;90424;-32
2022/11/13 01:28:58;;;;;;;26.67;23.83;;;5.90;99.90;;;;;;4958786;28;90528;-30
2022/11/13 01:31:27;;;;;;;31.23;24.35;;;5.80;99.90;;;;;;4959167;28;88151;-35
2022/11/13 01:33:52;;;;;;;27.27;23.90;;;5.80;99.90;;;;;;4958790;28;90299;-30
2022/11/13 01:36:21;;;;;;;31.02;24.73;;;5.80;99.90;;;;;;4958282;28;89513;-31
2022/11/13 01:38:48;;;;;;;27.00;23.58;;;5.80;99.90;;;;;;4958092;28;89321;-31
2022/11/13 01:41:20;;;;;;;27.00;24.15;;;5.70;99.90;;;;;;4959085;28;88287;-31
2022/11/13 01:43:46;;;;;;;24.98;22.25;;;5.70;99.90;;;;;;4958456;28;90007;-31
2022/11/13 01:46:35;;;;;;;24.83;22.23;;;5.70;99.90;;;;;;4958885;28;89855;-31
2022/11/13 01:49:09;;;;;;;25.33;22.45;;;5.70;99.90;;;;;;4958970;28;90408;-29
2022/11/13 01:51:39;;;;;;;28.65;25.02;;;5.70;99.90;;;;;;4957465;28;89178;-31
2022/11/13 01:54:10;;;;;;;27.65;24.88;;;5.70;99.90;;;;;;4958530;28;89837;-32
2022/11/13 01:56:36;;;;;;;30.65;23.70;;;5.70;99.90;;;;;;4958236;28;89593;-30
2022/11/13 01:59:11;;;;;;;29.23;26.08;;;5.80;99.90;;;;;;4958314;28;90185;-31
2022/11/13 02:01:37;;;;;;;29.73;25.73;;;5.80;99.90;;;;;;4958244;28;88924;-30
2022/11/13 02:04:03;;;;;;;28.60;25.33;;;5.90;99.90;;;;;;4958200;28;89840;-32
2022/11/13 02:06:58;;;;;;;30.75;26.48;;;5.80;99.90;;;;;;4958588;28;90598;-30
2022/11/13 02:09:27;;;;;;;31.23;27.88;;;5.90;99.90;;;;;;4940183;28;89606;-33
2022/11/13 02:11:54;;;;;;;29.60;23.23;;;5.80;99.90;;;;;;4958540;28;89009;-31
2022/11/13 02:14:22;;;;;;;28.88;25.90;;;5.80;99.90;;;;;;4957537;28;90621;-31
2022/11/13 02:16:51;;;;;;;34.47;26.90;;;5.70;99.90;;;;;;4957315;28;91504;-32
2022/11/13 02:19:31;;;;;;;29.15;26.13;;;5.70;99.90;;;;;;4958535;28;89579;-33
2022/11/13 02:22:02;;;;;;;31.90;24.42;;;5.60;99.90;;;;;;4957959;28;88482;-31
2022/11/13 02:24:40;;;;;;;29.50;26.00;;;5.60;99.90;;;;;;4957966;28;90282;-31
2022/11/13 02:27:10;;;;;;;28.15;25.27;;;5.50;99.90;;;;;;4959772;28;90135;-32
2022/11/13 02:29:35;;;;;;;33.63;26.67;;;5.50;99.90;;;;;;4961302;28;90281;-30
2022/11/13 02:32:01;;;;;;;29.35;25.95;;;5.50;99.90;;;;;;4961819;28;89067;-31
2022/11/13 02:34:27;;;;;;;30.15;26.42;;;5.50;99.90;;;;;;4960438;28;90193;-31
2022/11/13 02:36:52;;;;;;;28.05;24.83;;;5.50;99.90;;;;;;4961014;28;89450;-34
2022/11/13 02:39:18;;;;;;;30.13;27.02;;;5.50;99.90;;;;;;4960518;28;89675;-31
2022/11/13 02:41:44;;;;;;;35.25;26.55;;;5.50;99.90;;;;;;4960508;28;89805;-33
2022/11/13 02:44:09;;;;;;;27.77;24.80;;;5.40;99.90;;;;;;4961721;28;90096;-30
2022/11/13 02:46:35;;;;;;;35.38;25.33;;;5.40;99.90;;;;;;4960569;28;89806;-30
2022/11/13 02:49:01;;;;;;;30.17;26.38;;;5.40;99.90;;;;;;4961213;28;89817;-32
2022/11/13 02:51:27;;;;;;;28.33;25.35;;;5.40;99.90;;;;;;4959583;28;89180;-31
2022/11/13 02:53:53;;;;;;;36.63;28.58;;;5.30;99.90;;;;;;4961472;28;90294;-31
2022/11/13 02:56:18;;;;;;;29.15;26.08;;;5.40;99.90;;;;;;4961392;28;89825;-32
2022/11/13 02:58:44;;;;;;;31.88;24.77;;;5.30;99.90;;;;;;4960364;28;89539;-32
2022/11/13 03:01:09;;;;;;;32.13;27.25;;;5.30;99.90;;;;;;4961239;28;88078;-32
2022/11/13 03:03:35;;;;;;;30.83;27.52;;;5.30;99.90;;;;;;4960431;28;89750;-34
2022/11/13 03:06:00;;;;;;;30.40;27.33;;;5.30;99.90;;;;;;4960593;28;90535;-31
2022/11/13 03:08:26;;;;;;;28.23;25.10;;;5.30;99.90;;;;;;4960574;28;91611;-31
2022/11/13 03:10:52;;;;;;;25.63;23.00;;;5.20;99.90;;;;;;4960795;28;89159;-30
2022/11/13 03:13:18;;;;;;;26.50;23.65;;;5.20;99.90;;;;;;4961402;28;90128;-30
2022/11/13 03:15:44;;;;;;;29.25;26.13;;;5.20;99.90;;;;;;4959776;28;88633;-31
2022/11/13 03:18:10;;;;;;;28.85;25.33;;;5.20;99.90;;;;;;4960808;28;89630;-30
2022/11/13 03:20:38;;;;;;;31.13;26.23;;;5.20;99.90;;;;;;4960594;28;88591;-32
2022/11/13 03:23:04;;;;;;;29.75;24.83;;;5.20;99.90;;;;;;4960380;28;90489;-31
2022/11/13 03:25:29;;;;;;;32.92;25.35;;;5.20;99.90;;;;;;4961057;28;90539;-30
2022/11/13 03:27:55;;;;;;;30.98;24.75;;;5.20;99.90;;;;;;4960304;28;89725;-30
2022/11/13 03:30:21;;;;;;;30.35;27.00;;;5.20;99.90;;;;;;4959964;28;90696;-33
2022/11/13 03:32:47;;;;;;;32.30;26.25;;;5.30;99.90;;;;;;4960245;28;90365;-31
2022/11/13 03:35:12;;;;;;;30.52;24.92;;;5.30;99.90;;;;;;4960089;28;89879;-29
2022/11/13 03:37:38;;;;;;;31.17;28.02;;;5.40;99.90;;;;;;4959919;28;90097;-30
2022/11/13 03:40:04;;;;;;;30.27;27.00;;;5.40;99.90;;;;;;4960221;28;89647;-31
2022/11/13 03:42:30;;;;;;;29.27;26.08;;;5.40;99.90;;;;;;4960419;28;89949;-30
2022/11/13 03:44:56;;;;;;;28.17;24.90;;;5.50;99.90;;;;;;4960239;28;89471;-31
2022/11/13 03:47:21;;;;;;;27.60;23.10;;;5.50;99.90;;;;;;4960419;28;89639;-31
2022/11/13 03:49:47;;;;;;;27.65;24.15;;;5.60;99.90;;;;;;4961173;28;89764;-31
2022/11/13 03:52:12;;;;;;;35.58;28.60;;;5.60;99.90;;;;;;4959273;28;90587;-32
2022/11/13 03:54:38;;;;;;;30.33;27.20;;;5.60;99.90;;;;;;4960086;28;90764;-31
2022/11/13 03:57:03;;;;;;;29.17;26.38;;;5.50;99.90;;;;;;4959770;28;90368;-30
2022/11/13 03:59:29;;;;;;;29.63;26.08;;;5.60;99.90;;;;;;4960439;28;88654;-31
2022/11/13 04:01:55;;;;;;;30.60;25.05;;;5.60;99.90;;;;;;4960032;28;91140;-30
2022/11/13 04:04:21;;;;;;;28.38;24.73;;;5.60;99.90;;;;;;4959189;28;89031;-34
2022/11/13 04:06:46;;;;;;;31.25;27.60;;;5.70;99.90;;;;;;4959997;28;89885;-30
2022/11/13 04:09:12;;;;;;;32.38;26.42;;;5.70;99.90;;;;;;4959374;28;89786;-32
2022/11/13 04:11:37;;;;;;;29.95;24.80;;;5.70;99.90;;;;;;4960073;28;90316;-32
2022/11/13 04:14:03;;;;;;;30.27;27.00;;;5.60;99.90;;;;;;4960210;28;89564;-33
2022/11/13 04:16:28;;;;;;;28.52;25.00;;;5.70;99.90;;;;;;4959716;28;89665;-30
2022/11/13 04:18:54;;;;;;;28.27;24.83;;;5.70;99.90;;;;;;4959801;28;90574;-31
2022/11/13 04:21:19;;;;;;;28.48;23.95;;;5.60;99.90;;;;;;4959392;28;90347;-30
2022/11/13 04:23:45;;;;;;;29.92;24.92;;;5.60;99.90;;;;;;4959961;28;89885;-31
2022/11/13 04:26:11;;;;;;;28.95;25.75;;;5.60;99.90;;;;;;4959264;28;89679;-32
2022/11/13 04:28:36;;;;;;;33.10;25.67;;;5.50;99.90;;;;;;4959777;28;89785;-31
2022/11/13 04:31:02;;;;;;;26.63;23.83;;;5.50;99.90;;;;;;4959232;28;90274;-31
2022/11/13 04:33:27;;;;;;;26.80;23.90;;;5.50;99.90;;;;;;4959233;28;90111;-31
2022/11/13 04:35:53;;;;;;;29.58;26.30;;;5.50;99.90;;;;;;4960095;28;89832;-30
2022/11/13 04:38:19;;;;;;;28.17;24.90;;;5.50;99.90;;;;;;4959658;28;87750;-31
2022/11/13 04:40:47;;;;;;;25.67;22.92;;;5.50;99.90;;;;;;4959789;28;90073;-32
2022/11/13 04:43:13;;;;;;;33.53;26.15;;;5.40;99.90;;;;;;4958943;28;90406;-31
2022/11/13 04:45:38;;;;;;;27.83;24.98;;;5.30;99.90;;;;;;4959172;28;90365;-29
2022/11/13 04:48:04;;;;;;;30.23;25.30;;;5.30;99.90;;;;;;4959555;28;89814;-30
2022/11/13 04:50:30;;;;;;;26.92;24.15;;;5.20;99.90;;;;;;4959262;28;90113;-30
2022/11/13 04:52:55;;;;;;;27.90;23.63;;;5.20;99.90;;;;;;4959069;28;90087;-32
2022/11/13 04:55:21;;;;;;;24.83;22.13;;;5.10;99.90;;;;;;4959753;28;89722;-29
2022/11/13 04:57:46;;;;;;;26.80;23.77;;;5.10;99.90;;;;;;4959354;28;89046;-30
2022/11/13 05:00:12;;;;;;;27.20;24.33;;;5.00;99.90;;;;;;4960384;28;91168;-30
2022/11/13 05:02:38;;;;;;;26.80;21.98;;;5.00;99.90;;;;;;4958663;28;89513;-31
2022/11/13 05:05:04;;;;;;;26.73;22.55;;;4.90;99.90;;;;;;4959991;28;89589;-31
2022/11/13 05:07:29;;;;;;;23.67;20.83;;;4.80;99.90;;;;;;4958457;28;90217;-32
2022/11/13 05:09:55;;;;;;;25.95;23.13;;;4.80;99.90;;;;;;4958333;28;89076;-32
2022/11/13 05:12:21;;;;;;;25.77;23.02;;;4.70;99.90;;;;;;4959110;28;89483;-31
2022/11/13 05:14:46;;;;;;;24.75;22.02;;;4.70;99.90;;;;;;4958608;28;89586;-31
2022/11/13 05:17:12;;;;;;;29.63;25.02;;;4.60;99.90;;;;;;4959472;28;89016;-32
2022/11/13 05:19:38;;;;;;;26.15;23.52;;;4.70;99.90;;;;;;4958992;28;90414;-31
2022/11/13 05:22:05;;;;;;;30.05;23.92;;;4.70;99.90;;;;;;4958882;28;89593;-30
2022/11/13 05:24:31;;;;;;;29.65;24.30;;;4.70;99.90;;;;;;4959058;28;90197;-31
2022/11/13 05:26:56;;;;;;;27.13;22.40;;;4.70;99.90;;;;;;4958739;28;89196;-31
2022/11/13 05:29:22;;;;;;;23.52;21.13;;;4.70;99.90;;;;;;4959967;28;90331;-30
2022/11/13 05:31:48;;;;;;;26.35;23.27;;;4.70;99.90;;;;;;4957085;28;90768;-32
2022/11/13 05:34:14;;;;;;;28.13;24.00;;;4.70;99.90;;;;;;4958422;28;90298;-33
2022/11/13 05:36:39;;;;;;;24.38;21.77;;;4.60;99.90;;;;;;4958424;28;89118;-33
2022/11/13 05:39:05;;;;;;;28.55;22.83;;;4.70;99.90;;;;;;4958308;28;90370;-32
2022/11/13 05:41:31;;;;;;;26.85;24.02;;;4.70;99.90;;;;;;4959254;28;88552;-32
2022/11/13 05:43:57;;;;;;;27.58;22.08;;;4.70;99.90;;;;;;4958045;28;88496;-31
2022/11/13 05:46:28;;;;;;;26.63;21.67;;;4.70;99.90;;;;;;4958912;28;89459;-32
2022/11/13 05:48:58;;;;;;;23.88;21.08;;;4.60;99.90;;;;;;4959318;28;88907;-31
2022/11/13 05:51:29;;;;;;;28.95;21.95;;;4.60;99.90;;;;;;4958244;28;89972;-31
2022/11/13 05:53:57;;;;;;;24.27;21.27;;;4.60;99.90;;;;;;4958890;28;90791;-31
2022/11/13 05:56:25;;;;;;;24.35;20.58;;;4.50;99.90;;;;;;4958472;28;89212;-31
2022/11/13 05:58:52;;;;;;;23.17;20.63;;;4.50;99.90;;;;;;4958641;28;89504;-30
2022/11/13 06:01:23;;;;;;;25.77;22.17;;;4.40;99.90;;;;;;4961116;28;89744;-30
2022/11/13 06:03:50;;;;;;;23.33;20.92;;;4.40;99.90;;;;;;4962244;28;90060;-32
2022/11/13 06:06:19;;;;;;;23.77;21.17;;;4.40;99.90;;;;;;4962497;28;90117;-33
2022/11/13 06:08:45;;;;;;;26.27;22.95;;;4.30;99.90;;;;;;4959060;28;89604;-31
2022/11/13 06:11:14;;;;;;;24.80;22.05;;;4.30;99.90;;;;;;4961263;28;87842;-32
2022/11/13 06:13:40;;;;;;;22.20;19.85;;;4.30;99.90;;;;;;4961459;28;89473;-33
2022/11/13 06:16:11;;;;;;;23.00;20.60;;;4.30;99.90;;;;;;4962548;28;88745;-31
2022/11/13 06:18:38;;;;;;;23.42;20.88;;;4.20;99.90;;;;;;4962055;28;90239;-33
2022/11/13 06:21:06;;;;;;;28.83;20.85;;;4.20;99.90;;;;;;4961010;28;91788;-32
2022/11/13 06:23:34;;;;;;;26.80;23.02;;;4.20;99.90;;;;;;4960867;28;92419;-31
2022/11/13 06:26:02;;;;;;;24.17;21.60;;;4.20;99.90;;;;;;4960566;28;88084;-31
2022/11/13 06:28:28;;;;;;;24.93;22.30;;;4.20;99.90;;;;;;4961435;28;89806;-32
2022/11/13 06:30:53;;;;;;;32.28;24.50;;;4.20;99.90;;;;;;4961874;28;90114;-31
2022/11/13 06:33:19;;;;;;;23.58;21.15;;;4.30;99.90;;;;;;4961226;28;89492;-30
2022/11/13 06:35:44;;;;;;;27.02;24.08;;;4.40;99.90;;;;;;4961625;28;89113;-30
2022/11/13 06:38:10;;;;;;;27.08;23.40;;;4.50;99.90;;;;;;4960566;28;89944;-30
2022/11/13 06:40:37;;;;;;;26.17;22.80;;;4.50;99.90;;;;;;4961719;28;89524;-32
2022/11/13 06:43:03;;;;;;;29.85;23.55;;;4.60;99.90;;;;;;4960913;28;90704;-30
2022/11/13 06:45:28;;;;;;;29.17;25.23;;;4.60;99.90;;;;;;4960551;28;90591;-30
2022/11/13 06:47:54;;;;;;;30.13;24.45;;;4.60;99.90;;;;;;4960850;28;89339;-31
2022/11/13 06:50:20;;;;;;;25.08;22.40;;;4.70;99.90;;;;;;4960725;28;89960;-31
2022/11/13 06:52:45;;;;;;;24.92;22.42;;;4.60;99.90;;;;;;4961287;28;89181;-31
2022/11/13 06:55:11;;;;;;;29.60;23.92;;;4.60;99.90;;;;;;4961440;28;87664;-31
2022/11/13 06:57:36;;;;;;;23.98;21.52;;;4.60;99.90;;;;;;4960623;28;90089;-30
2022/11/13 07:00:03;;;;;;;28.50;22.60;;;4.50;99.90;;;;;;4961516;28;89239;-31
2022/11/13 07:02:29;;;;;;;27.80;23.13;;;4.40;99.90;;;;;;4960807;28;89804;-32
2022/11/13 07:04:54;;;;;;;26.63;23.73;;;4.40;99.90;;;;;;4961271;28;89988;-31
2022/11/13 07:07:20;;;;;;;28.77;24.08;;;4.40;99.90;;;;;;4960787;28;89931;-32
2022/11/13 07:09:45;;;;;;;26.98;21.80;;;4.40;99.90;;;;;;4959116;28;90623;-32
2022/11/13 07:12:11;;;;;;;31.27;24.98;;;4.50;99.90;;;;;;4958898;28;90450;-32
2022/11/13 07:14:36;;;;;;;28.35;25.20;;;4.50;99.90;;;;;;4960396;28;89201;-32
2022/11/13 07:17:02;;;;;;;29.58;25.02;;;4.60;99.90;;;;;;4961594;28;89851;-30
2022/11/13 07:19:28;;;;;;;33.38;24.77;;;4.70;99.90;;;;;;4960287;28;90247;-31
2022/11/13 07:21:53;;;;;;;31.85;23.20;;;4.70;99.90;;;;;;4960647;28;89651;-32
2022/11/13 07:24:19;;;;;;;25.30;22.60;;;4.70;99.90;;;;;;4960423;28;89151;-32
2022/11/13 07:26:44;;;;;;;28.08;24.17;;;4.70;99.90;;;;;;4960406;28;90628;-32
2022/11/13 07:29:11;;;;;;;28.98;25.70;;;4.70;99.90;;;;;;4960591;28;88826;-32
2022/11/13 07:31:36;;;;;;;31.48;24.30;;;4.70;99.90;;;;;;4960380;28;89023;-31
2022/11/13 07:34:02;;;;;;;26.02;23.23;;;4.60;99.90;;;;;;4960308;28;88699;-33
2022/11/13 07:36:28;;;;;;;35.50;31.60;;;4.60;99.90;;;;;;4959996;28;89927;-30
2022/11/13 07:38:53;;;;;;;29.77;25.02;;;4.60;99.90;;;;;;4960658;28;90204;-31
2022/11/13 07:41:19;;;;;;;28.60;24.45;;;4.60;99.90;;;;;;4959943;28;90068;-31
2022/11/13 07:43:44;;;;;;;24.42;21.85;;;4.60;99.90;;;;;;4960385;28;87984;-30
2022/11/13 07:46:10;;;;;;;27.58;24.90;;;4.60;99.90;;;;;;4960488;28;90696;-31
2022/11/13 07:48:36;;;;;;;25.98;23.27;;;4.70;99.90;;;;;;4958977;28;89303;-29
2022/11/13 07:51:02;;;;;;;27.73;24.23;;;4.70;99.90;;;;;;4961078;28;89602;-30
2022/11/13 07:53:28;;;;;;;26.60;23.88;;;4.80;99.90;;;;;;4960415;28;89207;-33
2022/11/13 07:55:53;;;;;;;27.80;24.75;;;4.80;99.90;;;;;;4960899;28;89978;-31
2022/11/13 07:58:19;;;;;;;27.38;23.63;;;4.80;99.90;;;;;;4962673;28;90586;-30
2022/11/13 08:00:44;;;;;;;26.33;23.55;;;4.90;99.90;;;;;;4960058;28;90793;-31
2022/11/13 08:03:15;;;;;;;29.92;25.02;;;5.00;99.90;;;;;;4958653;28;89291;-32
2022/11/13 08:05:41;;;;;;;23.77;21.35;;;5.00;99.90;;;;;;4959864;28;90644;-30
2022/11/13 08:08:10;;;;;;;26.23;21.50;;;5.00;99.90;;;;;;4960300;28;90375;-31
2022/11/13 08:10:35;;;;;;;29.13;24.15;;;5.10;99.90;;;;;;4958565;28;89676;-32
2022/11/13 08:13:04;;;;;;;27.58;24.58;;;5.00;99.90;;;;;;4959977;28;88188;-31
2022/11/13 08:15:30;;;;;;;27.15;23.60;;;5.10;99.90;;;;;;4960100;28;89263;-31
2022/11/13 08:17:57;;;;;;;26.55;23.67;;;5.10;99.90;;;;;;4959507;28;89284;-32
2022/11/13 08:20:25;;;;;;;26.45;23.70;;;5.10;99.90;;;;;;4959609;28;89524;-30
2022/11/13 08:22:51;;;;;;;26.33;23.60;;;5.10;99.90;;;;;;4958977;28;88868;-33
2022/11/13 08:25:17;;;;;;;26.15;22.52;;;5.20;99.90;;;;;;4960228;28;90119;-30
2022/11/13 08:27:44;;;;;;;24.27;21.73;;;5.20;99.90;;;;;;4958571;28;89785;-33
2022/11/13 08:30:10;;;;;;;25.25;22.63;;;5.30;99.90;;;;;;4959564;28;89373;-32
2022/11/13 08:32:36;;;;;;;25.58;21.17;;;5.30;99.90;;;;;;4959476;28;88161;-30
2022/11/13 08:35:01;;;;;;;26.17;21.20;;;5.30;99.90;;;;;;4959510;28;90050;-31
2022/11/13 08:37:27;;;;;;;25.27;22.63;;;5.30;99.90;;;;;;4959403;28;89251;-32
2022/11/13 08:39:53;;;;;;;24.73;21.83;;;5.40;99.90;;;;;;4959440;28;88651;-31
2022/11/13 08:42:18;;;;;;;26.33;22.92;;;5.40;99.90;;;;;;4958244;28;88457;-31
2022/11/13 08:44:44;;;;;;;24.58;22.08;;;5.50;99.90;;;;;;4959035;28;90148;-31
2022/11/13 08:47:09;;;;;;;25.63;22.80;;;5.50;99.90;;;;;;4959451;28;89140;-30
2022/11/13 08:49:35;;;;;;;25.13;22.23;;;5.60;99.90;;;;;;4959140;28;90814;-32
2022/11/13 08:52:01;;;;;;;23.23;20.90;;;5.70;99.90;;;;;;4958607;28;88092;-32
2022/11/13 08:54:26;;;;;;;26.08;22.33;;;5.80;99.90;;;;;;4959536;28;90641;-32
2022/11/13 08:56:52;;;;;;;24.70;21.42;;;5.80;99.90;;;;;;4959796;28;89698;-32
2022/11/13 08:59:17;;;;;;;28.98;23.17;;;6.00;99.90;;;;;;4956552;28;90282;-31
2022/11/13 09:01:43;;;;;;;27.13;24.45;;;5.90;99.90;;;;;;4957036;28;88452;-29
2022/11/13 09:04:08;;;;;;;25.80;22.90;;;5.90;99.90;;;;;;4956593;28;89237;-31
2022/11/13 09:06:34;;;;;;;29.35;22.48;;;6.00;99.90;;;;;;4955994;28;89767;-31
2022/11/13 09:09:00;;;;;;;28.13;25.17;;;6.10;99.90;;;;;;4945349;23;1119493;-33
2022/11/13 09:11:28;;;;;;;31.15;23.38;;;6.10;99.90;;;;;;4957092;28;88852;-31
2022/11/13 09:13:54;;;;;;;25.80;23.00;;;6.10;99.90;;;;;;4957582;28;90189;-31
2022/11/13 09:16:20;;;;;;;25.80;23.17;;;6.20;99.90;;;;;;4956229;28;89789;-33
2022/11/13 09:18:50;;;;;;;25.20;22.70;;;6.30;99.90;;;;;;4957003;28;89335;-34
2022/11/13 09:21:16;;;;;;;26.85;24.02;;;6.40;99.90;;;;;;4956682;28;88945;-32
2022/11/13 09:23:41;;;;;;;25.85;23.15;;;6.40;99.90;;;;;;4957028;28;90378;-32
2022/11/13 09:26:07;;;;;;;27.52;24.73;;;6.50;99.90;;;;;;4957357;28;89824;-30
2022/11/13 09:28:33;;;;;;;25.63;22.92;;;6.70;99.90;;;;;;4957352;28;89279;-29
2022/11/13 09:30:58;;;;;;;25.90;23.13;;;6.80;99.90;;;;;;4955350;28;89063;-32
2022/11/13 09:33:24;;;;;;;26.70;24.05;;;6.80;99.90;;;;;;4956238;28;90540;-33
2022/11/13 09:35:49;;;;;;;31.05;24.50;;;6.90;99.90;;;;;;4958003;28;91737;-31
2022/11/13 09:38:15;;;;;;;28.60;23.25;;;6.90;99.90;;;;;;4960561;28;90294;-33
2022/11/13 09:40:58;;;;;;;24.85;22.27;;;7.00;99.90;;;;;;4960456;28;89791;-32
2022/11/13 09:43:32;;;;;;;30.30;24.08;;;7.00;99.90;;;;;;4959590;28;90083;-34
2022/11/13 09:46:05;;;;;;;27.10;22.48;;;7.00;99.90;;;;;;4960159;28;89234;-32
2022/11/13 09:48:38;;;;;;;25.38;22.77;;;7.10;99.90;;;;;;4960517;28;89799;-33
2022/11/13 09:51:11;;;;;;;26.85;24.17;;;7.10;99.90;;;;;;4960782;28;90508;-32
2022/11/13 09:53:39;;;;;;;22.90;20.70;;;7.20;99.90;;;;;;4959565;28;90332;-31
2022/11/13 09:56:20;;;;;;;25.17;22.48;;;7.30;99.90;;;;;;4959193;28;89852;-32
2022/11/13 09:59:04;;;;;;;25.52;22.83;;;7.40;99.90;;;;;;4959744;28;89867;-31
2022/11/13 10:02:01;;;;;;;27.38;24.38;;;7.30;99.90;;;;;;4959746;28;89593;-31
2022/11/13 10:04:38;;;;;;;26.93;23.67;;;7.30;99.90;;;;;;4925978;28;90180;-32
2022/11/13 10:07:19;;;;;;;25.00;22.38;;;7.40;99.90;;;;;;4959784;28;89997;-31
2022/11/13 10:10:18;;;;;;;24.38;22.02;;;7.40;99.90;;;;;;4959226;28;89574;-31
2022/11/13 10:12:47;;;;;;;27.48;23.58;;;7.50;99.90;;;;;;4959628;28;89123;-33
2022/11/13 10:15:15;;;;;;;25.95;23.23;;;7.60;99.90;;;;;;4959925;28;90099;-30
2022/11/13 10:17:51;;;;;;;;;;;7.70;99.90;;;;;;4959525;28;89297;-34
2022/11/13 10:20:29;;;;;;;27.33;24.50;;;7.70;99.90;;;;;;4961275;28;90038;-33
2022/11/13 10:23:05;;;;;;;27.77;23.95;;;7.80;99.90;;;;;;4960034;28;89282;-33
2022/11/13 10:25:35;;;;;;;26.42;23.70;;;8.00;99.90;;;;;;4958978;28;90641;-33
2022/11/13 10:28:18;;;;;;;23.50;21.02;;;8.10;99.90;;;;;;4958617;28;90492;-31
2022/11/13 10:30:44;;;;;;;24.55;21.45;;;8.20;99.90;;;;;;4959184;28;89112;-32
2022/11/13 10:33:16;;;;;;;24.45;22.08;;;8.30;99.90;;;;;;4959446;28;88897;-32
2022/11/13 10:36:18;;;;;;;23.08;20.83;;;8.40;99.90;;;;;;4959123;28;90263;-33
2022/11/13 10:38:51;;;;;;;22.88;20.50;;;8.50;99.90;;;;;;4946555;28;89667;-33
2022/11/13 10:41:18;;;;;;;24.38;21.83;;;8.60;99.90;;;;;;4958798;28;89566;-32
2022/11/13 10:44:19;;;;;;;21.67;19.50;;;8.70;99.90;;;;;;4958780;28;89556;-34
2022/11/13 10:46:45;;;;;;;21.13;18.92;;;8.80;99.90;;;;;;4935133;28;89887;-32
2022/11/13 10:49:20;;;;;;;23.25;20.85;;;8.90;99.90;;;;;;4959447;28;89620;-31
2022/11/13 10:51:57;;;;;;;27.27;19.73;;;9.00;99.90;;;;;;4958719;28;89389;-31
2022/11/13 10:54:26;;;;;;;22.15;19.98;;;9.10;99.90;;;;;;4958589;28;90386;-33
2022/11/13 10:57:21;;;;;;;22.00;19.85;;;9.20;99.90;;;;;;4958016;28;89686;-30
2022/11/13 10:59:47;;;;;;;22.83;20.40;;;9.30;99.90;;;;;;4925621;28;89606;-32
2022/11/13 11:02:24;;;;;;;20.05;18.00;;;9.40;99.90;;;;;;4958866;28;89078;-32
2022/11/13 11:05:05;;;;;;;22.10;19.87;;;9.50;99.90;;;;;;4957968;28;88975;-32
2022/11/13 11:07:39;;;;;;;22.33;19.95;;;9.60;99.90;;;;;;4960569;28;91628;-31
2022/11/13 11:10:33;;;;;;;20.05;16.77;;;9.60;99.90;;;;;;4957048;28;89621;-33
2022/11/13 11:13:09;;;;;;;20.17;18.25;;;9.70;99.90;;;;;;4959518;28;89675;-30
2022/11/13 11:15:43;;;;;;;21.25;18.95;;;9.80;99.90;;;;;;4957973;28;89519;-32
2022/11/13 11:18:27;;;;;;;21.92;19.63;;;9.90;99.90;;;;;;4958436;28;89882;-33
2022/11/13 11:21:00;;;;;;;21.95;19.95;;;10.00;99.90;;;;;;4946339;28;91303;-34
2022/11/13 11:23:31;;;;;;;22.02;19.92;;;10.10;99.90;;;;;;4958190;28;89710;-32
2022/11/13 11:26:02;;;;;;;20.00;18.17;;;10.20;99.90;;;;;;4946704;28;88704;-34
2022/11/13 11:28:43;;;;;;;24.08;18.67;;;10.40;99.90;;;;;;4957450;28;90747;-33
2022/11/13 11:31:40;;;;;;;20.10;18.20;;;10.40;99.90;;;;;;4957463;28;89668;-33
2022/11/13 11:34:12;;;;;;;18.52;16.63;;;10.50;99.90;;;;;;4957752;28;89703;-31
2022/11/13 11:36:47;;;;;;;19.13;17.13;;;10.50;99.90;;;;;;4956785;28;89046;-32
2022/11/13 11:39:18;;;;;;;20.55;18.52;;;10.60;99.90;;;;;;4957741;28;90811;-32
2022/11/13 11:41:53;;;;;;;20.88;18.88;;;10.70;99.90;;;;;;4957432;28;89177;-32
2022/11/13 11:44:38;;;;;;;20.58;17.75;;;10.80;99.90;;;;;;4958388;28;89920;-33
2022/11/13 11:47:14;;;;;;;18.17;16.40;;;10.80;99.90;;;;;;4956983;28;89983;-32
2022/11/13 11:49:40;;;;;;;21.38;19.15;;;10.90;99.90;;;;;;4957903;28;90219;-34
2022/11/13 11:52:29;;;;;;;24.02;18.00;;;11.00;99.90;;;;;;4957772;28;89823;-32
2022/11/13 11:55:25;;;;;;;21.35;18.52;;;11.00;99.90;;;;;;4958458;28;89531;-32
2022/11/13 11:58:04;;;;;;;21.48;19.27;;;11.00;99.90;;;;;;4957445;28;89645;-31
2022/11/13 12:00:31;;;;;;;20.00;17.95;;;11.10;99.90;;;;;;4957987;28;90400;-31
2022/11/13 12:03:28;;;;;;;20.90;18.83;;;11.10;99.90;;;;;;4957513;28;89681;-31
2022/11/13 12:06:22;;;;;;;21.60;19.40;;;11.20;99.90;;;;;;4953246;28;88878;-33
2022/11/13 12:09:01;;;;;;;19.95;16.73;;;11.30;99.90;;;;;;4957663;28;88604;-34
2022/11/13 12:11:42;;;;;;;18.00;16.42;;;11.30;99.90;;;;;;4957565;28;89878;-30
2022/11/13 12:14:23;;;;;;;17.65;15.82;;;11.40;99.90;;;;;;4957129;28;90737;-30
2022/11/13 12:17:08;;;;;;;18.38;16.25;;;11.50;99.90;;;;;;4952918;28;89596;-33
2022/11/13 12:19:46;;;;;;;19.33;15.85;;;11.50;99.90;;;;;;4955690;28;88983;-32
2022/11/13 12:22:42;;;;;;;16.73;15.13;;;11.50;99.90;;;;;;4957440;28;90477;-32
2022/11/13 12:25:39;;;;;;;17.52;15.73;;;11.60;99.90;;;;;;4956954;28;89209;-32
2022/11/13 12:28:20;;;;;;;17.58;15.82;;;11.70;99.90;;;;;;4955923;28;90105;-32
2022/11/13 12:31:03;;;;;;;16.15;14.48;;;11.70;99.90;;;;;;4939118;28;89808;-32
2022/11/13 12:33:55;;;;;;;14.88;13.45;;;11.80;99.90;;;;;;4954697;28;90652;-32
2022/11/13 12:36:22;;;;;;;18.13;14.63;;;11.90;99.90;;;;;;4957659;28;90836;-31
2022/11/13 12:39:03;;;;;;;15.65;14.25;;;11.90;99.90;;;;;;4956652;28;89831;-32
2022/11/13 12:41:53;;;;;;;15.70;14.10;;;11.90;99.90;;;;;;4956844;28;89194;-32
2022/11/13 12:44:29;;;;;;;15.27;13.68;;;11.90;99.90;;;;;;4949120;28;90523;-31
2022/11/13 12:46:59;;;;;;;16.67;13.75;;;11.90;99.90;;;;;;4957100;28;89313;-31